Time;durP1;ratioP1;P1;durP2;ratioP2;P2;SDS_P1;SDS_P2;PMS_P1;PMS_P2;Temp;Humidity;BMP_temperature;BMP_pressure;BME280_temperature;BME280_humidity;BME280_pressure;Samples;Min_cycle;Max_cycle;Signal;HPM_P1;HPM_P2
2023/09/07 00:02:17;;;;;;;5.50;3.58;;;24.60;83.80;;;;;;4968753;28;20042;-72
2023/09/07 00:04:43;;;;;;;9.07;3.60;;;24.60;83.90;;;;;;4969330;28;20043;-72
2023/09/07 00:07:09;;;;;;;6.75;3.00;;;24.60;83.80;;;;;;4967929;28;20051;-73
2023/09/07 00:09:34;;;;;;;10.18;3.85;;;24.60;83.70;;;;;;4965366;28;20612;-72
2023/09/07 00:12:00;;;;;;;7.25;3.42;;;24.70;83.80;;;;;;4967581;28;20054;-72
2023/09/07 00:14:26;;;;;;;4.80;2.92;;;24.60;83.70;;;;;;4968273;28;20058;-72
2023/09/07 00:16:51;;;;;;;5.90;3.05;;;24.60;83.40;;;;;;4966937;28;20570;-72
2023/09/07 00:19:17;;;;;;;5.50;2.83;;;24.60;83.70;;;;;;4968617;28;20058;-72
2023/09/07 00:21:42;;;;;;;9.52;3.47;;;24.60;83.50;;;;;;4967841;28;20043;-73
2023/09/07 00:24:09;;;;;;;4.90;3.28;;;24.60;83.60;;;;;;4963014;28;20125;-72
2023/09/07 00:26:34;;;;;;;10.15;3.10;;;24.60;83.60;;;;;;4964665;28;20397;-73
2023/09/07 00:29:00;;;;;;;6.43;3.20;;;24.60;83.40;;;;;;4967907;28;20045;-73
2023/09/07 00:31:26;;;;;;;8.55;4.28;;;24.60;83.90;;;;;;4969934;28;20405;-72
2023/09/07 00:33:51;;;;;;;9.02;3.70;;;24.60;83.40;;;;;;4964059;28;20443;-72
2023/09/07 00:36:18;;;;;;;5.80;3.05;;;24.60;83.60;;;;;;4967503;28;20043;-72
2023/09/07 00:38:43;;;;;;;5.80;3.20;;;24.60;83.60;;;;;;4965531;28;20058;-72
2023/09/07 00:41:09;;;;;;;6.20;3.25;;;24.60;83.70;;;;;;4966113;28;20501;-72
2023/09/07 00:43:35;;;;;;;7.95;3.60;;;24.60;83.50;;;;;;4965170;28;20031;-73
2023/09/07 00:46:00;;;;;;;6.20;3.17;;;24.60;83.60;;;;;;4966158;28;20078;-72
2023/09/07 00:48:26;;;;;;;4.60;2.85;;;24.60;83.60;;;;;;4965219;28;20034;-72
2023/09/07 00:50:51;;;;;;;6.10;3.00;;;24.60;83.50;;;;;;4966484;28;20065;-73
2023/09/07 00:53:17;;;;;;;6.82;3.20;;;24.60;83.60;;;;;;4966652;28;20567;-72
2023/09/07 00:55:43;;;;;;;6.30;3.10;;;24.60;83.60;;;;;;4965663;28;20036;-72
2023/09/07 00:58:11;;;;;;;4.50;3.25;;;24.60;83.40;;;;;;4965578;28;20115;-72
2023/09/07 01:00:37;;;;;;;7.68;3.45;;;24.60;83.50;;;;;;4958717;28;20042;-72
2023/09/07 01:03:03;;;;;;;11.52;3.67;;;24.60;83.50;;;;;;4964694;28;20036;-72
2023/09/07 01:05:53;;;;;;;6.28;3.35;;;24.50;83.40;;;;;;4966116;28;20069;-72
2023/09/07 01:08:24;;;;;;;4.97;3.15;;;24.60;83.40;;;;;;4980604;28;20050;-72
2023/09/07 01:10:50;;;;;;;5.70;3.30;;;24.60;83.30;;;;;;4979626;28;20090;-72
2023/09/07 01:13:16;;;;;;;5.65;3.30;;;24.60;83.30;;;;;;4964358;28;20134;-72
2023/09/07 01:15:41;;;;;;;3.85;2.90;;;24.50;83.30;;;;;;4962978;28;20039;-72
2023/09/07 01:18:07;;;;;;;6.45;3.15;;;24.60;83.30;;;;;;4966074;28;20062;-72
2023/09/07 01:20:32;;;;;;;6.60;3.50;;;24.50;83.20;;;;;;4963283;28;20544;-73
2023/09/07 01:22:58;;;;;;;7.70;3.53;;;24.50;83.20;;;;;;4947906;28;20670;-72
2023/09/07 01:25:23;;;;;;;5.75;3.40;;;24.60;83.20;;;;;;4968821;28;20053;-72
2023/09/07 01:27:49;;;;;;;9.75;3.42;;;24.50;83.10;;;;;;4965728;28;20073;-72
2023/09/07 01:30:16;;;;;;;6.55;3.03;;;24.50;83.00;;;;;;4964837;28;20039;-73
2023/09/07 01:32:41;;;;;;;5.47;3.22;;;24.60;83.00;;;;;;4963570;28;20093;-73
2023/09/07 01:35:07;;;;;;;6.88;3.50;;;24.50;83.00;;;;;;4966107;28;20428;-73
2023/09/07 01:37:33;;;;;;;10.75;4.10;;;24.50;82.90;;;;;;4965897;28;20035;-73
2023/09/07 01:39:59;;;;;;;8.38;3.38;;;24.50;82.90;;;;;;4963042;28;20039;-73
2023/09/07 01:42:24;;;;;;;5.30;2.97;;;24.50;82.90;;;;;;4966770;28;20038;-73
2023/09/07 01:44:50;;;;;;;6.25;3.58;;;24.50;82.90;;;;;;4961748;28;20073;-73
2023/09/07 01:47:15;;;;;;;6.95;3.10;;;24.50;83.00;;;;;;4962451;28;20049;-72
2023/09/07 01:49:41;;;;;;;5.07;3.00;;;24.50;82.90;;;;;;4966752;28;20042;-73
2023/09/07 01:52:07;;;;;;;6.70;3.03;;;24.50;82.90;;;;;;4962940;28;20130;-72
2023/09/07 01:54:32;;;;;;;5.13;2.88;;;24.40;82.80;;;;;;4960997;28;20062;-74
2023/09/07 01:56:58;;;;;;;6.97;3.35;;;24.50;82.80;;;;;;4962857;28;20057;-73
2023/09/07 01:59:23;;;;;;;5.72;2.63;;;24.50;82.80;;;;;;4965028;28;20046;-72
2023/09/07 02:01:49;;;;;;;6.35;3.42;;;24.40;82.80;;;;;;4965695;28;20070;-73
2023/09/07 02:04:14;;;;;;;8.57;3.30;;;24.50;82.80;;;;;;4966133;28;20139;-73
2023/09/07 02:06:40;;;;;;;9.05;3.70;;;24.40;82.70;;;;;;4964726;28;20051;-73
2023/09/07 02:09:06;;;;;;;6.95;3.28;;;24.50;82.70;;;;;;4963792;28;20548;-73
2023/09/07 02:11:31;;;;;;;8.85;3.28;;;24.40;82.60;;;;;;4964574;28;20050;-73
2023/09/07 02:13:57;;;;;;;8.05;3.30;;;24.40;82.50;;;;;;4965757;28;20506;-73
2023/09/07 02:16:22;;;;;;;6.22;2.92;;;24.40;82.50;;;;;;4968018;28;20586;-73
2023/09/07 02:18:49;;;;;;;5.22;3.10;;;24.40;82.50;;;;;;4963147;28;20035;-73
2023/09/07 02:21:15;;;;;;;6.80;3.28;;;24.40;82.50;;;;;;4963378;28;20035;-73
2023/09/07 02:23:40;;;;;;;5.93;3.10;;;24.40;82.50;;;;;;4961255;28;20504;-73
2023/09/07 02:26:06;;;;;;;6.03;3.17;;;24.40;83.40;;;;;;4965583;28;20057;-72
2023/09/07 02:28:31;;;;;;;6.65;3.10;;;24.40;82.50;;;;;;4967026;28;20035;-73
2023/09/07 02:31:04;;;;;;;6.65;3.10;;;24.40;82.40;;;;;;4964143;28;20047;-73
2023/09/07 02:33:29;;;;;;;6.60;3.30;;;24.40;82.40;;;;;;4964056;28;20065;-73
2023/09/07 02:35:55;;;;;;;9.20;3.38;;;24.40;82.40;;;;;;4963829;28;20449;-73
2023/09/07 02:38:21;;;;;;;6.53;3.30;;;24.40;82.40;;;;;;4965308;28;20089;-73
2023/09/07 02:40:46;;;;;;;8.00;3.22;;;24.40;82.30;;;;;;4962517;28;20133;-73
2023/09/07 02:43:12;;;;;;;5.72;3.38;;;24.40;82.30;;;;;;4967066;28;21590;-73
2023/09/07 02:45:38;;;;;;;5.40;3.47;;;24.40;82.30;;;;;;4964917;28;20104;-73
2023/09/07 02:48:04;;;;;;;8.35;3.20;;;24.30;82.10;;;;;;4962989;28;20066;-73
2023/09/07 02:50:32;;;;;;;7.70;3.20;;;24.40;82.20;;;;;;4963127;28;20043;-73
2023/09/07 02:52:57;;;;;;;7.22;3.55;;;24.40;82.20;;;;;;4961517;28;20138;-73
2023/09/07 02:55:23;;;;;;;7.88;3.42;;;24.30;82.10;;;;;;4967109;28;20596;-73
2023/09/07 02:57:48;;;;;;;6.57;2.97;;;24.30;82.10;;;;;;4958381;28;20047;-73
2023/09/07 03:00:17;;;;;;;4.85;3.17;;;24.30;82.10;;;;;;4965075;28;20050;-72
2023/09/07 03:02:43;;;;;;;10.95;3.60;;;24.40;82.20;;;;;;4962989;28;20090;-72
2023/09/07 03:05:09;;;;;;;4.53;2.85;;;24.40;82.20;;;;;;4964871;28;20055;-72
2023/09/07 03:07:34;;;;;;;5.95;3.25;;;24.30;82.10;;;;;;4961516;28;20046;-72
2023/09/07 03:10:00;;;;;;;3.97;3.08;;;24.30;82.10;;;;;;4964315;28;20051;-72
2023/09/07 03:12:26;;;;;;;5.53;3.35;;;24.30;82.10;;;;;;4965845;28;20500;-73
2023/09/07 03:14:52;;;;;;;5.13;3.40;;;24.30;82.00;;;;;;4963668;28;20117;-72
2023/09/07 03:17:20;;;;;;;4.72;3.13;;;24.30;82.10;;;;;;4964947;28;20030;-71
2023/09/07 03:19:46;;;;;;;6.75;3.60;;;24.30;82.10;;;;;;4962874;28;20043;-72
2023/09/07 03:22:12;;;;;;;6.32;3.38;;;24.30;81.80;;;;;;4969384;28;20090;-72
2023/09/07 03:24:37;;;;;;;3.95;2.97;;;24.30;81.90;;;;;;4965648;28;20093;-73
2023/09/07 03:27:03;;;;;;;5.65;3.50;;;24.30;81.90;;;;;;4968432;28;20070;-72
2023/09/07 03:29:30;;;;;;;7.45;3.25;;;24.30;81.90;;;;;;4967502;28;20523;-72
2023/09/07 03:31:55;;;;;;;8.18;3.13;;;24.30;81.90;;;;;;4967332;28;20039;-73
2023/09/07 03:34:21;;;;;;;4.65;3.10;;;24.30;81.90;;;;;;4968384;28;20080;-73
2023/09/07 03:36:46;;;;;;;6.78;3.08;;;24.30;81.80;;;;;;4983193;28;20062;-72
2023/09/07 03:39:12;;;;;;;6.03;3.15;;;24.30;81.80;;;;;;4965162;28;20043;-72
2023/09/07 03:41:38;;;;;;;5.55;2.85;;;24.30;81.70;;;;;;4969866;28;20062;-72
2023/09/07 03:44:03;;;;;;;4.55;3.15;;;24.30;81.70;;;;;;4969018;28;20065;-73
2023/09/07 03:46:29;;;;;;;7.90;3.13;;;24.30;81.70;;;;;;4967694;28;20122;-72
2023/09/07 03:48:54;;;;;;;4.60;2.90;;;24.20;81.50;;;;;;4965726;28;20408;-73
2023/09/07 03:51:20;;;;;;;7.30;3.38;;;24.30;81.70;;;;;;4969595;28;20045;-72
2023/09/07 03:53:45;;;;;;;6.47;3.03;;;24.20;81.80;;;;;;4967102;28;20043;-73
2023/09/07 03:56:11;;;;;;;6.47;3.35;;;24.20;81.80;;;;;;4965680;28;20066;-72
2023/09/07 03:58:37;;;;;;;5.60;3.15;;;24.20;81.70;;;;;;4968896;28;20035;-73
2023/09/07 04:01:02;;;;;;;6.07;3.25;;;24.20;81.70;;;;;;4967055;28;20047;-73
2023/09/07 04:03:28;;;;;;;6.15;2.92;;;24.20;81.70;;;;;;4964873;28;20398;-73
2023/09/07 04:05:53;;;;;;;5.38;3.15;;;24.20;82.40;;;;;;4967388;28;20051;-72
2023/09/07 04:08:19;;;;;;;5.85;2.83;;;24.20;81.60;;;;;;4966412;28;20035;-72
2023/09/07 04:10:44;;;;;;;6.57;3.13;;;24.20;81.50;;;;;;4968086;28;20043;-73
2023/09/07 04:13:10;;;;;;;8.10;3.20;;;24.20;81.50;;;;;;4969230;28;20516;-72
2023/09/07 04:15:43;;;;;;;8.10;3.40;;;24.20;81.50;;;;;;4965053;28;20046;-72
2023/09/07 04:18:09;;;;;;;7.22;3.42;;;24.20;81.50;;;;;;4964104;28;20066;-72
2023/09/07 04:20:35;;;;;;;8.50;3.85;;;24.20;81.50;;;;;;4966539;28;20085;-72
2023/09/07 04:23:00;;;;;;;5.85;3.72;;;24.20;81.50;;;;;;4964771;28;20051;-72
2023/09/07 04:25:26;;;;;;;5.13;3.20;;;24.10;81.50;;;;;;4969285;28;20070;-72
2023/09/07 04:27:51;;;;;;;7.07;3.72;;;24.10;81.50;;;;;;4964919;28;20513;-72
2023/09/07 04:30:17;;;;;;;4.45;2.83;;;24.10;81.50;;;;;;4967272;28;20039;-72
2023/09/07 04:32:43;;;;;;;13.45;3.50;;;24.10;81.50;;;;;;4964409;28;20417;-73
2023/09/07 04:35:08;;;;;;;4.15;3.25;;;24.10;81.40;;;;;;4962814;28;27699;-73
2023/09/07 04:37:34;;;;;;;7.40;3.20;;;24.10;81.30;;;;;;4968338;28;20050;-73
2023/09/07 04:40:00;;;;;;;7.70;3.30;;;24.10;81.40;;;;;;4965341;28;20043;-72
2023/09/07 04:42:25;;;;;;;9.68;3.40;;;24.10;81.30;;;;;;4965400;28;20041;-73
2023/09/07 04:44:51;;;;;;;3.92;2.63;;;24.10;81.30;;;;;;4966573;28;20034;-73
2023/09/07 04:47:16;;;;;;;5.20;3.25;;;24.10;81.30;;;;;;4965746;28;20046;-73
2023/09/07 04:49:42;;;;;;;6.93;3.58;;;24.10;82.00;;;;;;4966185;28;20101;-73
2023/09/07 04:52:09;;;;;;;4.40;2.95;;;24.10;81.30;;;;;;4964209;28;20154;-72
2023/09/07 04:54:34;;;;;;;6.10;3.40;;;24.10;81.30;;;;;;4968349;28;20057;-73
2023/09/07 04:57:00;;;;;;;4.75;2.90;;;24.10;81.20;;;;;;4965967;28;20050;-73
2023/09/07 04:59:25;;;;;;;7.50;3.90;;;24.10;81.20;;;;;;4968558;28;20405;-72
2023/09/07 05:01:51;;;;;;;5.30;2.70;;;24.10;81.20;;;;;;4966470;28;20089;-73
2023/09/07 05:04:17;;;;;;;9.75;4.25;;;24.10;81.10;;;;;;4966873;28;20043;-73
2023/09/07 05:06:43;;;;;;;7.50;3.53;;;24.10;81.10;;;;;;4967552;28;20484;-74
2023/09/07 05:09:08;;;;;;;3.70;3.10;;;24.10;81.00;;;;;;4965412;28;20126;-74
2023/09/07 05:11:35;;;;;;;9.43;3.95;;;24.10;80.90;;;;;;4963313;28;20607;-74
2023/09/07 05:14:01;;;;;;;6.10;3.25;;;24.10;81.00;;;;;;4965678;28;20043;-74
2023/09/07 05:16:27;;;;;;;7.18;3.25;;;24.10;81.00;;;;;;4966793;28;20138;-74
2023/09/07 05:18:53;;;;;;;6.00;3.30;;;24.10;80.90;;;;;;4964875;28;20043;-74
2023/09/07 05:21:18;;;;;;;8.10;3.47;;;24.10;80.90;;;;;;4962492;28;20440;-73
2023/09/07 05:23:44;;;;;;;7.35;3.25;;;24.10;80.90;;;;;;4963601;28;20062;-74
2023/09/07 05:26:10;;;;;;;7.43;3.10;;;24.10;80.90;;;;;;4964772;28;20062;-74
2023/09/07 05:28:35;;;;;;;3.75;2.95;;;24.10;80.90;;;;;;4964164;28;20065;-74
2023/09/07 05:31:01;;;;;;;7.93;3.50;;;24.10;80.90;;;;;;4960866;28;20073;-74
2023/09/07 05:33:27;;;;;;;4.85;2.85;;;24.10;80.90;;;;;;4962751;28;20051;-74
2023/09/07 05:35:52;;;;;;;4.22;2.97;;;24.10;80.90;;;;;;4964402;28;20118;-74
2023/09/07 05:38:18;;;;;;;4.95;3.20;;;24.00;80.80;;;;;;4962368;28;20059;-74
2023/09/07 05:40:44;;;;;;;5.63;3.50;;;24.10;80.80;;;;;;4961976;28;20041;-74
2023/09/07 05:43:10;;;;;;;6.38;3.47;;;24.10;80.80;;;;;;4958236;28;20042;-73
2023/09/07 05:45:40;;;;;;;7.57;3.50;;;24.10;80.70;;;;;;4960227;28;20495;-73
2023/09/07 05:48:05;;;;;;;6.40;3.65;;;24.10;80.70;;;;;;4961220;28;20053;-73
2023/09/07 05:50:35;;;;;;;6.97;3.63;;;24.10;80.60;;;;;;4963704;28;20038;-73
2023/09/07 05:53:01;;;;;;;4.97;3.05;;;24.10;80.60;;;;;;4960234;28;20081;-74
2023/09/07 05:55:27;;;;;;;6.50;3.05;;;24.10;80.60;;;;;;4964307;28;20090;-73
2023/09/07 05:57:54;;;;;;;7.75;3.75;;;24.10;80.70;;;;;;4960226;28;20577;-73
2023/09/07 06:00:20;;;;;;;5.10;3.40;;;24.10;80.70;;;;;;4966509;28;20073;-74
2023/09/07 06:02:45;;;;;;;8.65;3.33;;;24.10;80.70;;;;;;4274165;28;10000701;-72
2023/09/07 06:05:11;;;;;;;7.80;4.43;;;23.80;80.90;;;;;;4956998;28;20042;-72
2023/09/07 06:07:36;;;;;;;8.52;4.20;;;23.40;83.40;;;;;;4962241;28;20053;-72
2023/09/07 06:10:02;;;;;;;7.20;3.55;;;23.10;86.30;;;;;;4955781;28;20101;-72
2023/09/07 06:12:28;;;;;;;6.72;3.50;;;22.90;86.10;;;;;;4962224;28;20047;-72
2023/09/07 06:14:53;;;;;;;7.25;3.75;;;22.80;86.60;;;;;;4961063;28;20398;-73
2023/09/07 06:17:19;;;;;;;6.32;3.45;;;22.80;86.80;;;;;;4960003;28;20436;-73
2023/09/07 06:19:46;;;;;;;4.45;3.33;;;22.80;87.10;;;;;;4960959;28;20038;-72
2023/09/07 06:22:12;;;;;;;8.68;3.83;;;22.80;87.40;;;;;;4961084;28;20154;-72
2023/09/07 06:24:37;;;;;;;5.90;3.50;;;22.80;87.50;;;;;;4957953;28;20126;-72
2023/09/07 06:27:03;;;;;;;8.48;3.60;;;22.80;87.20;;;;;;4961041;28;20046;-72
2023/09/07 06:29:29;;;;;;;9.75;4.00;;;22.80;88.00;;;;;;4960743;28;20042;-73
2023/09/07 06:31:54;;;;;;;5.90;3.78;;;22.70;88.40;;;;;;4964012;28;20186;-73
2023/09/07 06:34:20;;;;;;;11.43;3.60;;;22.90;87.30;;;;;;4967512;28;20559;-73
2023/09/07 06:36:45;;;;;;;6.55;3.45;;;23.20;86.40;;;;;;4964453;28;20050;-73
2023/09/07 06:39:11;;;;;;;6.57;3.40;;;23.40;85.60;;;;;;4965358;28;20053;-73
2023/09/07 06:41:36;;;;;;;7.03;3.30;;;23.50;84.80;;;;;;4965265;28;20053;-73
2023/09/07 06:44:02;;;;;;;6.95;3.47;;;23.60;84.40;;;;;;4962374;28;20118;-73
2023/09/07 06:46:28;;;;;;;4.38;2.92;;;23.70;84.00;;;;;;4964934;28;20039;-73
2023/09/07 06:48:53;;;;;;;9.05;3.47;;;23.70;83.90;;;;;;4962886;28;20492;-75
2023/09/07 06:51:19;;;;;;;5.43;3.40;;;23.80;83.50;;;;;;4962122;28;20054;-74
2023/09/07 06:53:44;;;;;;;4.70;2.92;;;23.80;83.20;;;;;;4963700;28;20049;-73
2023/09/07 06:56:10;;;;;;;6.43;3.17;;;23.90;83.00;;;;;;4963815;28;20487;-73
2023/09/07 06:58:36;;;;;;;4.13;3.28;;;23.90;82.90;;;;;;4966513;28;20049;-73
2023/09/07 07:01:02;;;;;;;6.32;2.97;;;23.90;82.90;;;;;;4965048;28;20054;-72
2023/09/07 07:03:28;;;;;;;5.45;3.08;;;23.90;82.90;;;;;;4965066;28;20096;-73
2023/09/07 07:05:54;;;;;;;4.03;2.70;;;23.90;82.90;;;;;;4963027;28;20042;-73
2023/09/07 07:08:20;;;;;;;5.53;3.22;;;24.00;82.90;;;;;;4965126;28;20049;-73
2023/09/07 07:10:45;;;;;;;9.02;3.10;;;24.00;83.00;;;;;;4957710;28;20046;-73
2023/09/07 07:13:11;;;;;;;6.57;3.40;;;23.90;82.80;;;;;;4964353;28;20058;-73
2023/09/07 07:15:37;;;;;;;5.85;2.88;;;24.00;82.80;;;;;;4965058;28;20709;-73
2023/09/07 07:18:08;;;;;;;6.97;3.22;;;24.00;82.70;;;;;;4962122;28;20058;-73
2023/09/07 07:20:46;;;;;;;4.10;2.80;;;24.00;82.70;;;;;;4963302;28;20035;-73
2023/09/07 07:23:12;;;;;;;6.80;2.97;;;24.00;82.60;;;;;;4959880;28;20050;-73
2023/09/07 07:25:38;;;;;;;4.35;2.90;;;24.00;82.50;;;;;;4967320;28;20058;-73
2023/09/07 07:28:07;;;;;;;4.20;2.60;;;24.00;82.30;;;;;;4963219;28;20685;-73
2023/09/07 07:30:33;;;;;;;6.10;3.35;;;24.00;82.30;;;;;;4961402;28;20043;-73
2023/09/07 07:32:59;;;;;;;6.70;3.30;;;24.00;82.30;;;;;;4965125;28;20049;-72
2023/09/07 07:35:25;;;;;;;8.38;3.20;;;24.00;82.30;;;;;;4958608;28;20420;-73
2023/09/07 07:37:51;;;;;;;5.65;3.00;;;24.00;82.00;;;;;;4964035;28;20493;-72
2023/09/07 07:40:17;;;;;;;5.20;2.83;;;24.10;82.10;;;;;;4966600;28;20045;-72
2023/09/07 07:42:43;;;;;;;6.35;3.35;;;24.00;81.90;;;;;;4965746;28;20034;-72
2023/09/07 07:45:09;;;;;;;5.95;2.70;;;24.10;81.90;;;;;;4961322;28;20055;-73
2023/09/07 07:47:35;;;;;;;5.15;3.05;;;24.10;81.90;;;;;;4959325;28;20416;-72
2023/09/07 07:50:00;;;;;;;5.78;2.90;;;24.10;81.80;;;;;;4962976;28;20442;-73
2023/09/07 07:52:26;;;;;;;4.25;2.55;;;24.10;81.80;;;;;;4966143;28;20137;-73
2023/09/07 07:54:52;;;;;;;5.47;2.78;;;24.10;81.70;;;;;;4963589;28;20082;-72
2023/09/07 07:57:18;;;;;;;5.00;2.67;;;24.10;81.70;;;;;;4965532;28;20043;-72
2023/09/07 07:59:44;;;;;;;4.25;2.92;;;24.10;81.70;;;;;;4963270;28;20058;-74
2023/09/07 08:02:09;;;;;;;3.15;2.85;;;24.10;81.70;;;;;;4962680;28;20050;-74
2023/09/07 08:04:35;;;;;;;6.13;2.95;;;24.10;81.70;;;;;;4966152;28;20070;-74
2023/09/07 08:07:04;;;;;;;6.45;3.15;;;24.10;81.70;;;;;;4964859;28;20070;-74
2023/09/07 08:09:30;;;;;;;4.43;2.60;;;24.10;81.70;;;;;;4967461;28;20034;-74
2023/09/07 08:11:56;;;;;;;3.75;2.78;;;24.10;81.70;;;;;;4965640;28;20435;-75
2023/09/07 08:14:23;;;;;;;3.42;3.08;;;24.20;81.70;;;;;;4967033;28;20125;-74
2023/09/07 08:16:49;;;;;;;4.72;3.30;;;24.20;81.40;;;;;;4967602;28;20129;-74
2023/09/07 08:19:15;;;;;;;3.42;2.53;;;24.20;81.30;;;;;;4966287;28;20137;-74
2023/09/07 08:21:42;;;;;;;2.35;2.15;;;24.20;81.20;;;;;;4968170;28;20037;-74
2023/09/07 08:24:08;;;;;;;2.92;2.72;;;24.20;81.20;;;;;;4967255;28;20050;-74
2023/09/07 08:26:35;;;;;;;8.73;3.40;;;24.20;81.00;;;;;;4969085;28;20069;-74
2023/09/07 08:29:08;;;;;;;3.08;2.47;;;24.30;81.10;;;;;;4967415;28;20153;-74
2023/09/07 08:31:38;;;;;;;3.67;2.20;;;24.30;80.90;;;;;;4967462;28;20041;-75
2023/09/07 08:34:06;;;;;;;3.72;2.97;;;24.30;81.50;;;;;;4966627;28;20050;-74
2023/09/07 08:36:33;;;;;;;2.60;2.40;;;24.30;80.60;;;;;;4967564;28;20046;-74
2023/09/07 08:39:07;;;;;;;3.20;2.88;;;24.30;80.60;;;;;;4967982;28;20046;-74
2023/09/07 08:41:43;;;;;;;3.45;2.30;;;24.30;80.60;;;;;;4965569;28;20110;-74
2023/09/07 08:44:09;;;;;;;2.83;2.40;;;24.30;80.50;;;;;;4966218;28;20042;-74
2023/09/07 08:46:35;;;;;;;3.78;2.42;;;24.40;80.50;;;;;;4969217;28;20039;-74
2023/09/07 08:49:01;;;;;;;3.17;2.78;;;24.40;80.40;;;;;;4965149;28;20061;-74
2023/09/07 08:51:31;;;;;;;4.22;2.50;;;24.40;80.40;;;;;;4966095;28;20038;-74
2023/09/07 08:54:00;;;;;;;4.35;2.63;;;24.40;80.40;;;;;;4965761;28;20152;-73
2023/09/07 08:56:25;;;;;;;3.45;2.50;;;24.40;80.50;;;;;;4963830;28;20035;-73
2023/09/07 08:58:51;;;;;;;3.72;2.22;;;24.40;80.40;;;;;;4967245;28;20425;-73
2023/09/07 09:01:17;;;;;;;2.80;2.60;;;24.40;81.10;;;;;;4968996;28;20512;-73
2023/09/07 09:03:43;;;;;;;3.72;2.60;;;24.40;80.30;;;;;;4966833;28;20057;-73
2023/09/07 09:06:08;;;;;;;3.13;2.53;;;24.40;80.30;;;;;;4965089;28;20507;-73
2023/09/07 09:08:48;;;;;;;3.20;2.67;;;24.40;80.30;;;;;;4965865;28;20774;-73
2023/09/07 09:11:14;;;;;;;2.67;2.40;;;24.50;80.30;;;;;;4967019;28;20043;-73
2023/09/07 09:13:41;;;;;;;4.63;2.85;;;24.50;80.30;;;;;;4969707;28;20477;-73
2023/09/07 09:16:06;;;;;;;2.55;2.30;;;24.50;80.30;;;;;;4966501;28;20031;-73
2023/09/07 09:18:32;;;;;;;5.05;2.72;;;24.50;80.30;;;;;;4966115;28;20140;-73
2023/09/07 09:21:00;;;;;;;3.33;2.60;;;24.50;80.20;;;;;;4966214;28;20715;-74
2023/09/07 09:23:32;;;;;;;5.13;2.33;;;24.50;80.20;;;;;;4964161;28;20578;-73
2023/09/07 09:25:58;;;;;;;2.45;2.25;;;24.60;80.20;;;;;;4962519;28;20091;-74
2023/09/07 09:28:26;;;;;;;2.83;2.47;;;24.60;80.20;;;;;;4963518;28;20034;-73
2023/09/07 09:30:51;;;;;;;2.95;2.75;;;24.60;80.20;;;;;;4966492;28;20053;-73
2023/09/07 09:33:19;;;;;;;2.67;2.47;;;24.60;80.10;;;;;;4965207;28;20448;-73
2023/09/07 09:35:45;;;;;;;3.92;2.42;;;24.60;80.20;;;;;;4963657;28;20042;-73
2023/09/07 09:38:13;;;;;;;2.45;2.25;;;24.60;80.10;;;;;;4966603;28;20046;-73
2023/09/07 09:40:38;;;;;;;3.67;2.85;;;24.60;80.10;;;;;;4968388;28;20035;-72
2023/09/07 09:43:04;;;;;;;4.05;2.67;;;24.60;80.20;;;;;;4968915;28;20038;-73
2023/09/07 09:45:30;;;;;;;4.47;2.75;;;24.60;80.10;;;;;;4967782;28;20042;-73
2023/09/07 09:48:00;;;;;;;3.17;2.50;;;24.70;80.20;;;;;;4963550;28;20412;-73
2023/09/07 09:50:25;;;;;;;3.00;2.53;;;24.60;80.10;;;;;;4966755;28;20042;-73
2023/09/07 09:52:53;;;;;;;3.22;3.03;;;24.70;80.10;;;;;;4966504;28;20035;-73
2023/09/07 09:55:18;;;;;;;2.65;2.40;;;24.70;80.10;;;;;;4965894;28;22184;-73
2023/09/07 09:57:44;;;;;;;3.40;2.40;;;24.70;80.00;;;;;;4964743;28;20505;-73
2023/09/07 10:00:25;;;;;;;2.50;2.30;;;24.70;80.00;;;;;;4964521;28;20042;-73
2023/09/07 10:03:11;;;;;;;2.67;2.33;;;24.70;80.00;;;;;;4959301;28;20042;-73
2023/09/07 10:05:36;;;;;;;2.70;2.53;;;24.70;79.90;;;;;;4959471;28;20420;-72
2023/09/07 10:08:05;;;;;;;2.65;2.45;;;24.70;79.80;;;;;;4963997;28;20519;-73
2023/09/07 10:10:36;;;;;;;2.78;2.55;;;24.70;79.70;;;;;;4981596;28;20043;-73
2023/09/07 10:13:01;;;;;;;3.10;2.40;;;24.80;79.80;;;;;;4948602;28;20054;-74
2023/09/07 10:15:27;;;;;;;3.08;2.75;;;24.80;79.80;;;;;;4964838;28;20412;-73
2023/09/07 10:18:13;;;;;;;3.10;2.80;;;24.80;79.80;;;;;;4965793;28;20257;-73
2023/09/07 10:20:52;;;;;;;4.80;2.70;;;24.80;79.80;;;;;;4965376;28;20134;-73
2023/09/07 10:23:18;;;;;;;3.00;2.80;;;24.80;79.70;;;;;;4962044;28;20049;-73
2023/09/07 10:25:50;;;;;;;2.65;2.45;;;24.80;79.70;;;;;;4964095;28;20043;-72
2023/09/07 10:28:23;;;;;;;2.90;2.70;;;24.80;79.70;;;;;;4959664;28;20134;-72
2023/09/07 10:31:18;;;;;;;2.97;2.60;;;24.80;79.50;;;;;;4962053;28;20046;-73
2023/09/07 10:34:09;;;;;;;3.05;2.67;;;24.80;79.50;;;;;;4733833;28;10001105;-73
2023/09/07 10:36:34;;;;;;;2.90;2.60;;;24.90;80.20;;;;;;4958469;28;20689;-73
2023/09/07 10:39:00;;;;;;;3.00;2.80;;;24.90;80.40;;;;;;4963277;28;20038;-73
2023/09/07 10:41:25;;;;;;;5.50;2.80;;;24.90;80.40;;;;;;4959271;28;20415;-73
2023/09/07 10:43:55;;;;;;;3.05;2.80;;;24.90;80.50;;;;;;4961954;28;20055;-73
2023/09/07 10:46:22;;;;;;;2.95;2.75;;;24.90;80.60;;;;;;4962971;28;20043;-73
2023/09/07 10:48:51;;;;;;;2.85;2.60;;;24.90;80.40;;;;;;4964714;28;20043;-73
2023/09/07 10:51:18;;;;;;;3.10;2.85;;;24.90;80.50;;;;;;4961931;28;20035;-73
2023/09/07 10:53:43;;;;;;;2.85;2.65;;;25.00;80.40;;;;;;4964384;28;20055;-72
2023/09/07 10:56:09;;;;;;;3.13;2.83;;;25.00;80.40;;;;;;4942108;28;20146;-73
2023/09/07 10:58:35;;;;;;;3.20;3.00;;;25.00;80.30;;;;;;4966055;28;20508;-72
2023/09/07 11:01:03;;;;;;;3.22;2.50;;;25.00;80.30;;;;;;4965131;28;20240;-73
2023/09/07 11:03:28;;;;;;;2.80;2.30;;;25.00;80.30;;;;;;4964038;28;20078;-79
2023/09/07 11:06:21;;;;;;;4.53;3.20;;;25.00;80.30;;;;;;4961031;28;20089;-79
2023/09/07 11:08:47;;;;;;;2.67;2.47;;;25.00;80.20;;;;;;4950409;28;20404;-79
2023/09/07 11:11:13;;;;;;;3.15;2.83;;;25.00;80.20;;;;;;4962959;28;20039;-79
2023/09/07 11:13:38;;;;;;;2.55;2.10;;;25.00;80.10;;;;;;4963127;28;20039;-79
2023/09/07 11:16:08;;;;;;;2.50;2.30;;;25.10;80.10;;;;;;4964619;28;20054;-78
2023/09/07 11:18:37;;;;;;;2.45;2.25;;;25.10;80.10;;;;;;4947012;28;20045;-78
2023/09/07 11:21:07;;;;;;;2.95;2.33;;;25.10;80.10;;;;;;4965566;28;20493;-78
2023/09/07 11:23:38;;;;;;;4.40;2.28;;;25.10;80.10;;;;;;4962968;28;20043;-78
2023/09/07 11:26:15;;;;;;;2.63;2.42;;;25.10;80.00;;;;;;4961577;28;20134;-78
2023/09/07 11:28:41;;;;;;;2.88;2.67;;;25.10;80.00;;;;;;4967057;28;20374;-78
2023/09/07 11:31:07;;;;;;;4.15;3.03;;;25.10;80.00;;;;;;4963072;28;20098;-78
2023/09/07 11:33:33;;;;;;;2.97;2.53;;;25.10;80.00;;;;;;4946121;28;20166;-77
2023/09/07 11:35:58;;;;;;;3.97;3.55;;;25.10;80.50;;;;;;4964740;28;20630;-78
2023/09/07 11:38:29;;;;;;;4.53;3.97;;;25.10;80.00;;;;;;4961765;28;20042;-78
2023/09/07 11:40:54;;;;;;;6.80;4.65;;;25.10;80.00;;;;;;4959636;28;20039;-78
2023/09/07 11:43:20;;;;;;;4.70;4.30;;;25.10;80.20;;;;;;4968212;28;20117;-78
2023/09/07 11:45:46;;;;;;;4.25;3.72;;;25.10;80.20;;;;;;4970263;28;20035;-79
2023/09/07 11:48:11;;;;;;;4.85;3.75;;;25.10;80.10;;;;;;4962839;28;20054;-74
2023/09/07 11:50:37;;;;;;;5.00;3.58;;;25.10;80.10;;;;;;4968609;28;20027;-74
2023/09/07 11:53:04;;;;;;;3.58;3.22;;;25.10;80.20;;;;;;4969884;28;20038;-74
2023/09/07 11:55:29;;;;;;;4.90;3.78;;;25.10;80.10;;;;;;4969048;28;20043;-74
2023/09/07 11:57:55;;;;;;;4.10;3.65;;;25.10;80.80;;;;;;4967996;28;20113;-74
2023/09/07 12:00:22;;;;;;;4.40;3.45;;;25.10;80.10;;;;;;4968368;28;20586;-74
2023/09/07 12:02:48;;;;;;;3.40;3.20;;;25.10;79.80;;;;;;4965718;28;20126;-74
2023/09/07 12:05:15;;;;;;;4.03;3.67;;;25.10;79.90;;;;;;4968723;28;20039;-75
2023/09/07 12:07:41;;;;;;;4.38;3.53;;;25.10;79.90;;;;;;4971403;28;20589;-74
2023/09/07 12:10:10;;;;;;;3.83;3.13;;;25.10;80.00;;;;;;4968723;28;21617;-74
2023/09/07 12:12:37;;;;;;;3.35;3.05;;;25.10;80.00;;;;;;4968656;28;20050;-74
2023/09/07 12:15:04;;;;;;;6.10;3.38;;;25.10;80.00;;;;;;4968734;28;20053;-74
2023/09/07 12:17:30;;;;;;;4.68;3.38;;;25.20;80.00;;;;;;4966823;28;20051;-75
2023/09/07 12:19:56;;;;;;;3.55;3.20;;;25.10;80.40;;;;;;4952778;28;20035;-74
2023/09/07 12:22:21;;;;;;;3.80;3.40;;;25.20;80.10;;;;;;4968734;28;20049;-74
2023/09/07 12:24:47;;;;;;;3.15;2.95;;;25.10;80.00;;;;;;4968595;28;20047;-74
2023/09/07 12:27:12;;;;;;;3.78;3.22;;;25.20;80.10;;;;;;4966942;28;20046;-74
2023/09/07 12:29:38;;;;;;;3.78;3.47;;;25.20;80.10;;;;;;4970168;28;20035;-74
2023/09/07 12:32:04;;;;;;;5.32;3.08;;;25.10;80.00;;;;;;4968944;28;21047;-74
2023/09/07 12:34:29;;;;;;;3.20;3.00;;;25.20;80.00;;;;;;4965725;28;20055;-74
2023/09/07 12:36:55;;;;;;;5.70;3.42;;;25.20;79.90;;;;;;4950444;28;20424;-74
2023/09/07 12:39:20;;;;;;;3.38;2.80;;;25.20;79.80;;;;;;4967565;28;20047;-74
2023/09/07 12:41:46;;;;;;;3.45;3.15;;;25.20;79.70;;;;;;4965179;28;20055;-74
2023/09/07 12:44:12;;;;;;;2.90;2.70;;;25.20;79.50;;;;;;4966484;28;20089;-75